createdAt,value
2023-08-12T00:00:53.568Z,99836.6
2023-08-12T00:01:58.921Z,99837.76
2023-08-12T00:03:04.369Z,99843.99
2023-08-12T00:04:09.944Z,99847.45
2023-08-12T00:05:15.327Z,99841.5
2023-08-12T00:06:20.638Z,99835.95
2023-08-12T00:07:25.981Z,99831.37
2023-08-12T00:08:31.338Z,99839.05
2023-08-12T00:09:36.654Z,99840.44
2023-08-12T00:10:41.974Z,99835.9
2023-08-12T00:11:47.314Z,99836.94
2023-08-12T00:12:52.664Z,99840.98
2023-08-12T00:13:58.011Z,99826.75
2023-08-12T00:15:03.359Z,99834.73
2023-08-12T00:16:08.788Z,99826.86
2023-08-12T00:17:14.441Z,99837.02
2023-08-12T00:18:19.764Z,99837.02
2023-08-12T00:19:25.091Z,99831.23
2023-08-12T00:20:30.632Z,99830.41
2023-08-12T00:21:35.941Z,99833.37
2023-08-12T00:22:41.294Z,99838.05
2023-08-12T00:23:46.702Z,99827.97
2023-08-12T00:24:52.061Z,99835.03
2023-08-12T00:25:57.383Z,99830.7
2023-08-12T00:27:02.717Z,99820.33
2023-08-12T00:28:08.072Z,99820.98
2023-08-12T00:29:13.433Z,99817.7
2023-08-12T00:30:18.767Z,99822.91
2023-08-12T00:31:24.199Z,99822.42
2023-08-12T00:32:29.759Z,99822.31
2023-08-12T00:33:35.127Z,99824.66
2023-08-12T00:34:40.408Z,99829.54
2023-08-12T00:35:45.727Z,99814.62
2023-08-12T00:36:51.084Z,99816.27
2023-08-12T00:37:56.519Z,99817.19
2023-08-12T00:39:01.841Z,99810.59
2023-08-12T00:40:07.191Z,99810.77
2023-08-12T00:41:12.511Z,99817.94
2023-08-12T00:42:17.882Z,99819.92
2023-08-12T00:43:23.234Z,99820.44
2023-08-12T00:44:28.573Z,99823.72
2023-08-12T00:45:33.901Z,99827.33
2023-08-12T00:46:39.310Z,99812.48
2023-08-12T00:47:44.828Z,99821.55
2023-08-12T00:48:50.240Z,99815.91
2023-08-12T00:49:55.545Z,99813.23
2023-08-12T00:51:00.873Z,99815.33
2023-08-12T00:52:06.176Z,99818.64
2023-08-12T00:53:11.499Z,99814.8
2023-08-12T00:54:16.859Z,99810.02
2023-08-12T00:55:22.211Z,99815.63
2023-08-12T00:56:27.553Z,99816.14
2023-08-12T00:57:32.881Z,99809.48
2023-08-12T00:58:38.210Z,99810.78
2023-08-12T00:59:43.510Z,99817.96
2023-08-12T01:00:48.821Z,99817.66
2023-08-12T01:01:54.245Z,99818.07
2023-08-12T01:02:59.919Z,99811.02
2023-08-12T01:04:05.731Z,99815.8
2023-08-12T01:05:11.130Z,99815.91
2023-08-12T01:06:16.478Z,99809.28
2023-08-12T01:07:21.822Z,99812.48
2023-08-12T01:08:27.156Z,99808.74
2023-08-12T01:09:32.460Z,99804.72
2023-08-12T01:10:37.826Z,99809.98
2023-08-12T01:11:43.282Z,99808.92
2023-08-12T01:12:48.576Z,99807.34
2023-08-12T01:13:53.900Z,99802.69
2023-08-12T01:14:59.269Z,99807.99
2023-08-12T01:16:04.592Z,99806.83
2023-08-12T01:17:10.808Z,99808.92
2023-08-12T01:18:16.631Z,99809.74
2023-08-12T01:19:21.950Z,99806.76
2023-08-12T01:20:27.308Z,99807.53
2023-08-12T01:21:32.639Z,99810.37
2023-08-12T01:22:37.919Z,99809.95
2023-08-12T01:23:43.253Z,99808.8
2023-08-12T01:24:48.541Z,99808.17
2023-08-12T01:25:53.857Z,99804.77
2023-08-12T01:26:59.172Z,99811.14
2023-08-12T01:28:04.477Z,99809.91
2023-08-12T01:29:09.795Z,99805.13
2023-08-12T01:30:15.107Z,99803.84
2023-08-12T01:31:20.520Z,99816.09
2023-08-12T01:32:26.048Z,99812.48
2023-08-12T01:33:31.460Z,99810.37
2023-08-12T01:34:36.773Z,99815.34
2023-08-12T01:35:42.085Z,99815.45
2023-08-12T01:36:47.404Z,99807.06
2023-08-12T01:37:52.763Z,99804.8
2023-08-12T01:38:58.064Z,99808.88
2023-08-12T01:40:03.476Z,99815.11
2023-08-12T01:41:08.782Z,99813.36
2023-08-12T01:42:14.089Z,99805.19
2023-08-12T01:43:19.711Z,99806.02
2023-08-12T01:44:25.065Z,99797.38
2023-08-12T01:45:30.403Z,99807.05
2023-08-12T01:46:35.715Z,99809.85
2023-08-12T01:47:41.196Z,99805.24
2023-08-12T01:48:46.547Z,99814.16
2023-08-12T01:49:51.895Z,99820.76
2023-08-12T01:50:57.184Z,99821.79
2023-08-12T01:52:02.511Z,99823.13
2023-08-12T01:53:07.824Z,99818.36
2023-08-12T01:54:13.167Z,99822.38
2023-08-12T01:55:18.489Z,99824.23
2023-08-12T01:56:23.824Z,99824.31
2023-08-12T01:57:29.138Z,99821.91
2023-08-12T01:58:34.441Z,99822.33
2023-08-12T01:59:39.758Z,99823.59
2023-08-12T02:00:45.144Z,99824.94
2023-08-12T02:01:50.561Z,99827.09
2023-08-12T02:02:56.063Z,99834.73
2023-08-12T02:04:01.582Z,99825.11
2023-08-12T02:05:06.950Z,99816.68
2023-08-12T02:06:12.322Z,99822.73
2023-08-12T02:07:17.690Z,99821.11
2023-08-12T02:08:23.088Z,99820.91
2023-08-12T02:09:28.619Z,99821.86
2023-08-12T02:10:33.911Z,99831.48
2023-08-12T02:11:39.259Z,99828.9
2023-08-12T02:12:48.928Z,99830.73
2023-08-12T02:13:54.235Z,99820.63
2023-08-12T02:14:59.567Z,99815.73
2023-08-12T02:16:04.968Z,99822.38
2023-08-12T02:17:10.747Z,99826.4
2023-08-12T02:18:16.687Z,99821.58
2023-08-12T02:19:21.990Z,99824.88
2023-08-12T02:20:28.376Z,99824.47
2023-08-12T02:21:33.678Z,99828.33
2023-08-12T02:22:39.816Z,99827.55
2023-08-12T02:23:45.179Z,99830.77
2023-08-12T02:24:50.500Z,99833.38
2023-08-12T02:25:55.833Z,99823.82
2023-08-12T02:27:01.151Z,99823.72
2023-08-12T02:28:06.450Z,99820.7
2023-08-12T02:29:11.791Z,99833.05
2023-08-12T02:30:17.182Z,99832.22
2023-08-12T02:31:22.582Z,99834.98
2023-08-12T02:32:27.990Z,99836.42
2023-08-12T02:33:33.381Z,99828.43
2023-08-12T02:34:38.689Z,99835.08
2023-08-12T02:35:44.049Z,99840.95
2023-08-12T02:36:49.340Z,99830.53
2023-08-12T02:37:54.637Z,99832.63
2023-08-12T02:38:59.940Z,99833.14
2023-08-12T02:40:05.290Z,99835.88
2023-08-12T02:41:10.624Z,99840.48
2023-08-12T02:42:15.950Z,99843.81
2023-08-12T02:43:21.260Z,99837.65
2023-08-12T02:44:26.671Z,99842.14
2023-08-12T02:45:32.022Z,99838.27
2023-08-12T02:46:37.467Z,99853.78
2023-08-12T02:47:42.811Z,99832.34
2023-08-12T02:48:48.155Z,99845.92
2023-08-12T02:49:53.480Z,99843.23
2023-08-12T02:50:58.797Z,99844.79
2023-08-12T02:52:04.514Z,99844.79
2023-08-12T02:53:09.872Z,99845.27
2023-08-12T02:54:15.164Z,99838.67
2023-08-12T02:55:20.558Z,99847
2023-08-12T02:56:25.896Z,99851.33
2023-08-12T02:57:31.193Z,99846.59
2023-08-12T02:58:36.573Z,99835.75
2023-08-12T02:59:42.061Z,99841.87
2023-08-12T03:00:47.415Z,99850.38
2023-08-12T03:01:52.748Z,99853.77
2023-08-12T03:02:58.234Z,99856.79
2023-08-12T03:04:03.709Z,99848.93
2023-08-12T03:05:09.069Z,99852.95
2023-08-12T03:06:14.413Z,99849.93
2023-08-12T03:07:19.850Z,99843.11
2023-08-12T03:08:25.157Z,99853.64
2023-08-12T03:09:30.458Z,99847.45
2023-08-12T03:10:35.783Z,99856.63
2023-08-12T03:11:41.098Z,99844.45
2023-08-12T03:12:46.422Z,99845.72
2023-08-12T03:13:51.715Z,99855.05
2023-08-12T03:14:57.191Z,99847.13
2023-08-12T03:16:02.689Z,99854.75
2023-08-12T03:17:08.100Z,99855.85
2023-08-12T03:18:13.885Z,99849.06
2023-08-12T03:19:19.185Z,99847.18
2023-08-12T03:20:24.481Z,99847.41
2023-08-12T03:21:29.853Z,99861.63
2023-08-12T03:22:35.186Z,99858.02
2023-08-12T03:23:40.642Z,99852.83
2023-08-12T03:24:45.957Z,99859.05
2023-08-12T03:25:51.276Z,99854.51
2023-08-12T03:26:56.597Z,99849.75
2023-08-12T03:28:01.946Z,99860.97
2023-08-12T03:29:07.269Z,99861.45
2023-08-12T03:30:12.648Z,99862.31
2023-08-12T03:31:18.071Z,99868.56
2023-08-12T03:32:23.445Z,99870.42
2023-08-12T03:33:28.797Z,99868.23
2023-08-12T03:34:34.078Z,99871.84
2023-08-12T03:35:39.433Z,99859
2023-08-12T03:36:44.735Z,99873.17
2023-08-12T03:37:50.050Z,99866.66
2023-08-12T03:38:55.362Z,99868.33
2023-08-12T03:40:00.721Z,99867.06
2023-08-12T03:41:06.075Z,99858.77
2023-08-12T03:42:11.390Z,99869.33
2023-08-12T03:43:16.727Z,99871.53
2023-08-12T03:44:22.043Z,99871.3
2023-08-12T03:45:27.338Z,99873.22
2023-08-12T03:46:32.816Z,99870.87
2023-08-12T03:47:38.296Z,99871.05
2023-08-12T03:48:43.684Z,99868.2
2023-08-12T03:49:49.040Z,99860.04
2023-08-12T03:50:54.334Z,99858.8
2023-08-12T03:51:59.639Z,99866
2023-08-12T03:53:04.998Z,99871.98
2023-08-12T03:54:10.309Z,99862.67
2023-08-12T03:55:15.710Z,99853.45
2023-08-12T03:56:21.062Z,99862.27
2023-08-12T03:57:26.411Z,99861.89
2023-08-12T03:58:31.732Z,99869.48
2023-08-12T03:59:37.055Z,99865.05
2023-08-12T04:00:42.469Z,99859.05
2023-08-12T04:01:48.022Z,99864.81
2023-08-12T04:02:53.494Z,99868.14
2023-08-12T04:03:59.035Z,99863.3
2023-08-12T04:05:04.391Z,99860.8
2023-08-12T04:06:09.773Z,99867.28
2023-08-12T04:07:15.696Z,99858.56
2023-08-12T04:08:21.117Z,99866.22
2023-08-12T04:09:26.433Z,99854.15
2023-08-12T04:10:31.725Z,99839.45
2023-08-12T04:11:37.065Z,99854.69
2023-08-12T04:12:42.365Z,99841.75
2023-08-12T04:13:47.663Z,99857.02
2023-08-12T04:14:52.977Z,99846.05
2023-08-12T04:15:58.310Z,99853.86
2023-08-12T04:17:04.096Z,99854.34
2023-08-12T04:18:09.509Z,99846.11
2023-08-12T04:19:14.872Z,99852.88
2023-08-12T04:20:20.213Z,99859.91
2023-08-12T04:21:25.573Z,99860.8
2023-08-12T04:22:30.891Z,99863.48
2023-08-12T04:23:36.206Z,99858.09
2023-08-12T04:24:41.728Z,99859.98
2023-08-12T04:25:47.299Z,99862.66
2023-08-12T04:26:52.621Z,99856.52
2023-08-12T04:27:57.947Z,99863.34
2023-08-12T04:29:03.236Z,99850
2023-08-12T04:30:08.584Z,99851.4
2023-08-12T04:31:13.941Z,99849.17
2023-08-12T04:32:19.299Z,99851.19
2023-08-12T04:33:24.603Z,99852.81
2023-08-12T04:34:29.930Z,99857.23
2023-08-12T04:35:35.300Z,99856.83
2023-08-12T04:36:42.607Z,99850.92
2023-08-12T04:37:48.824Z,99845.84
2023-08-12T04:38:54.205Z,99857.45
2023-08-12T04:39:59.552Z,99853.91
2023-08-12T04:41:05.127Z,99861.36
2023-08-12T04:42:10.536Z,99860.61
2023-08-12T04:43:15.965Z,99858.2
2023-08-12T04:44:21.394Z,99862.13
2023-08-12T04:45:26.732Z,99863.7
2023-08-12T04:46:32.094Z,99872.25
2023-08-12T04:47:37.630Z,99865.25
2023-08-12T04:48:43.014Z,99851.38
2023-08-12T04:49:48.385Z,99856.22
2023-08-12T04:50:53.687Z,99850.97
2023-08-12T04:51:58.996Z,99863.16
2023-08-12T04:53:04.334Z,99857.55
2023-08-12T04:54:09.739Z,99754.98
2023-08-12T04:55:15.071Z,99858.55
2023-08-12T04:56:20.410Z,99870.91
2023-08-12T04:57:25.718Z,99866.76
2023-08-12T04:58:31.020Z,99869.57
2023-08-12T04:59:36.307Z,99863.61
2023-08-12T05:00:41.639Z,99864.8
2023-08-12T05:02:05.029Z,99868.92
2023-08-12T05:03:10.660Z,99864.43
2023-08-12T05:04:16.042Z,99865.36
2023-08-12T05:05:21.465Z,99872.53
2023-08-12T05:06:26.882Z,99873.86
2023-08-12T05:07:32.162Z,99869.84
2023-08-12T05:08:37.462Z,99866.14
2023-08-12T05:09:42.798Z,99869.95
2023-08-12T05:10:48.143Z,99864.53
2023-08-12T05:11:53.488Z,99876.44
2023-08-12T05:12:58.815Z,99870.71
2023-08-12T05:14:04.168Z,99872.11
2023-08-12T05:15:09.499Z,99866.8
2023-08-12T05:16:14.873Z,99856.26
2023-08-12T05:17:20.397Z,99862.85
2023-08-12T05:18:25.921Z,99858.31
2023-08-12T05:19:31.225Z,99870.95
2023-08-12T05:20:36.565Z,99871.7
2023-08-12T05:21:41.956Z,99858.52
2023-08-12T05:22:47.299Z,99863.54
2023-08-12T05:23:52.669Z,99866.94
2023-08-12T05:24:57.987Z,99870.36
2023-08-12T05:26:03.301Z,99867.48
2023-08-12T05:27:08.603Z,99865.42
2023-08-12T05:28:13.991Z,99867.27
2023-08-12T05:29:19.302Z,99857.19
2023-08-12T05:30:24.771Z,99856.12
2023-08-12T05:31:30.192Z,99861.92
2023-08-12T05:32:35.612Z,99860.65
2023-08-12T05:33:41.203Z,99854.3
2023-08-12T05:34:46.644Z,99862.4
2023-08-12T05:35:51.965Z,99865.73
2023-08-12T05:36:57.256Z,99862.23
2023-08-12T05:38:02.589Z,99856.09
2023-08-12T05:39:07.943Z,99860.58
2023-08-12T05:40:13.425Z,99871.7
2023-08-12T05:41:19.021Z,99868.52
2023-08-12T05:42:24.305Z,99861.92
2023-08-12T05:43:29.611Z,99860.58
2023-08-12T05:44:34.929Z,99865.18
2023-08-12T05:45:40.265Z,99867.06
2023-08-12T05:46:45.635Z,99851.63
2023-08-12T05:47:51.036Z,99864.31
2023-08-12T05:48:56.483Z,99860.41
2023-08-12T05:50:01.820Z,99862.98
2023-08-12T05:51:07.149Z,99866.24
2023-08-12T05:52:13.395Z,99865.04
2023-08-12T05:53:19.445Z,99864.21
2023-08-12T05:54:24.784Z,99858.44
2023-08-12T05:55:30.257Z,99851.04
2023-08-12T05:56:35.564Z,99864.21
2023-08-12T05:57:41.039Z,99854.13
2023-08-12T05:58:46.355Z,99867.82
2023-08-12T05:59:51.657Z,99852.78
2023-08-12T06:00:57.000Z,99865.97
2023-08-12T06:02:02.386Z,99861.7
2023-08-12T06:03:07.778Z,99852.2
2023-08-12T06:04:13.171Z,99859.27
2023-08-12T06:05:18.483Z,99855.17
2023-08-12T06:06:23.817Z,99857.45
2023-08-12T06:07:29.132Z,99844.58
2023-08-12T06:08:34.466Z,99846.84
2023-08-12T06:09:39.794Z,99852.16
2023-08-12T06:10:45.095Z,99856
2023-08-12T06:11:50.490Z,99843.13
2023-08-12T06:12:55.828Z,99847.14
2023-08-12T06:14:01.264Z,99846.97
2023-08-12T06:15:06.575Z,99850.98
2023-08-12T06:16:12.105Z,99842.61
2023-08-12T06:17:17.504Z,99839.63
2023-08-12T06:18:22.863Z,99847.32
2023-08-12T06:19:28.202Z,99836.03
2023-08-12T06:20:33.511Z,99851.4
2023-08-12T06:21:38.928Z,99843.98
2023-08-12T06:22:44.245Z,99848.37
2023-08-12T06:23:49.538Z,99849.2
2023-08-12T06:24:54.826Z,99851.7
2023-08-12T06:26:00.160Z,99846.28
2023-08-12T06:27:05.649Z,99852.45
2023-08-12T06:28:11.147Z,99858.64
2023-08-12T06:29:16.536Z,99847
2023-08-12T06:30:21.846Z,99840.03
2023-08-12T06:31:27.313Z,99851.36
2023-08-12T06:32:32.733Z,99834.47
2023-08-12T06:33:38.057Z,99836.73
2023-08-12T06:34:43.368Z,99845.07
2023-08-12T06:35:52.304Z,99837.08
2023-08-12T06:36:57.621Z,99845.82
2023-08-12T06:38:02.972Z,99841.39
2023-08-12T06:39:08.333Z,99837.08
2023-08-12T06:40:13.714Z,99845.07
2023-08-12T06:41:19.030Z,99846.13
2023-08-12T06:42:24.366Z,99842.45
2023-08-12T06:43:31.716Z,99850.31
2023-08-12T06:44:37.026Z,99836.62
2023-08-12T06:45:42.351Z,99842.86
2023-08-12T06:46:47.740Z,99844.03
2023-08-12T06:47:53.185Z,99832.2
2023-08-12T06:48:58.560Z,99832.42
2023-08-12T06:50:03.888Z,99842.58
2023-08-12T06:51:09.236Z,99836.75
2023-08-12T06:52:14.941Z,99843.34
2023-08-12T06:53:20.295Z,99844.16
2023-08-12T06:54:25.643Z,99832.97
2023-08-12T06:55:30.984Z,99835.71
2023-08-12T06:56:36.334Z,99832.45
2023-08-12T06:57:41.656Z,99837.39
2023-08-12T06:58:46.973Z,99829.7
2023-08-12T06:59:52.322Z,99832.92
2023-08-12T07:00:57.723Z,99835.43
2023-08-12T07:02:03.035Z,99828.67
2023-08-12T07:03:08.472Z,99835.15
2023-08-12T07:04:13.862Z,99832.75
2023-08-12T07:05:19.148Z,99827.33
2023-08-12T07:06:24.487Z,99838.69
2023-08-12T07:07:29.829Z,99836.48
2023-08-12T07:08:35.145Z,99822.83
2023-08-12T07:09:40.442Z,99838.95
2023-08-12T07:10:45.773Z,99829.55
2023-08-12T07:11:51.089Z,99832.15
2023-08-12T07:12:56.605Z,99835.23
2023-08-12T07:14:01.969Z,99832.9
2023-08-12T07:15:07.291Z,99833.72
2023-08-12T07:16:12.757Z,99833.31
2023-08-12T07:17:18.198Z,99824.8
2023-08-12T07:18:23.500Z,99835.4
2023-08-12T07:19:28.831Z,99833.2
2023-08-12T07:20:34.159Z,99838.08
2023-08-12T07:21:39.439Z,99832.2
2023-08-12T07:22:44.786Z,99826.48
2023-08-12T07:24:04.706Z,99832.03
2023-08-12T07:25:10.077Z,99834.37
2023-08-12T07:26:15.403Z,99821.02
2023-08-12T07:27:20.883Z,99827.91
2023-08-12T07:28:26.622Z,99828.55
2023-08-12T07:29:31.948Z,99829.89
2023-08-12T07:30:37.261Z,99824.23
2023-08-12T07:31:42.598Z,99831.75
2023-08-12T07:32:48.207Z,99827.21
2023-08-12T07:33:53.592Z,99831.85
2023-08-12T07:34:58.899Z,99821.66
2023-08-12T07:36:04.240Z,99829.24
2023-08-12T07:37:09.559Z,99821.15
2023-08-12T07:38:14.900Z,99822.59
2023-08-12T07:39:20.224Z,99822.13
2023-08-12T07:40:25.523Z,99832.75
2023-08-12T07:41:30.856Z,99822.72
2023-08-12T07:42:36.187Z,99817.23
2023-08-12T07:43:41.515Z,99830.82
2023-08-12T07:44:46.853Z,99820.15
2023-08-12T07:46:09.804Z,99831.16
2023-08-12T07:47:15.585Z,99823.42
2023-08-12T07:48:20.944Z,99825.59
2023-08-12T07:49:26.377Z,99819.34
2023-08-12T07:50:31.736Z,99822.08
2023-08-12T07:51:37.049Z,99823.06
2023-08-12T07:52:42.398Z,99823.25
2023-08-12T07:53:47.719Z,99825.23
2023-08-12T07:54:53.040Z,99832.45
2023-08-12T07:55:58.382Z,99823.72
2023-08-12T07:57:03.705Z,99818.66
2023-08-12T07:58:09.032Z,99817.84
2023-08-12T07:59:14.312Z,99820.44
2023-08-12T08:00:20.103Z,99817.66
2023-08-12T08:01:25.476Z,99820.34
2023-08-12T08:02:30.908Z,99822.43
2023-08-12T08:03:36.408Z,99816.89
2023-08-12T08:04:41.754Z,99811.09
2023-08-12T08:05:47.124Z,99815.67
2023-08-12T08:06:53.152Z,99809.85
2023-08-12T08:07:58.499Z,99815.09
2023-08-12T08:09:03.908Z,99804.31
2023-08-12T08:10:09.259Z,99811.37
2023-08-12T08:11:14.626Z,99800.7
2023-08-12T08:12:19.947Z,99804.95
2023-08-12T08:13:25.297Z,99813.47
2023-08-12T08:14:30.650Z,99806.48
2023-08-12T08:15:35.968Z,99807.71
2023-08-12T08:16:41.556Z,99820.58
2023-08-12T08:17:47.537Z,99816.38
2023-08-12T08:18:52.966Z,99820.22
2023-08-12T08:19:58.573Z,99807.87
2023-08-12T08:21:07.151Z,99818.25
2023-08-12T08:22:13.205Z,99811.55
2023-08-12T08:23:19.047Z,99811.14
2023-08-12T08:24:24.345Z,99809.16
2023-08-12T08:25:29.693Z,99799.23
2023-08-12T08:26:35.022Z,99802.87
2023-08-12T08:27:42.211Z,99806.7
2023-08-12T08:28:48.972Z,99813.3
2023-08-12T08:29:54.266Z,99795.63
2023-08-12T08:30:59.662Z,99805.94
2023-08-12T08:32:05.241Z,99809.03
2023-08-12T08:33:10.628Z,99794.41
2023-08-12T08:34:16.031Z,99793.43
2023-08-12T08:35:21.428Z,99796.8
2023-08-12T08:36:26.798Z,99801.69
2023-08-12T08:37:32.125Z,99794.75
2023-08-12T08:38:37.444Z,99789.41
2023-08-12T08:39:42.790Z,99800.94
2023-08-12T08:40:48.126Z,99796.09
2023-08-12T08:41:53.414Z,99801.06
2023-08-12T08:42:58.767Z,99793.53
2023-08-12T08:44:04.080Z,99786.49
2023-08-12T08:45:09.424Z,99786.65
2023-08-12T08:46:14.803Z,99784.27
2023-08-12T08:47:20.216Z,99783.73
2023-08-12T08:48:25.504Z,99788.76
2023-08-12T08:49:30.789Z,99791.85
2023-08-12T08:50:36.104Z,99783.56
2023-08-12T08:51:41.428Z,99788.76
2023-08-12T08:52:46.738Z,99783.45
2023-08-12T08:53:53.863Z,99788.76
2023-08-12T08:55:09.920Z,99787.34
2023-08-12T08:56:17.300Z,99784.14
2023-08-12T08:57:44.838Z,99780.18
2023-08-12T08:58:53.358Z,99788.05
2023-08-12T09:00:00.331Z,99786.95
2023-08-12T09:01:05.699Z,99785.02
2023-08-12T09:02:11.424Z,99776.92
2023-08-12T09:03:17.150Z,99789.45
2023-08-12T09:04:22.439Z,99781.81
2023-08-12T09:05:27.988Z,99784.13
2023-08-12T09:06:33.385Z,99781.34
2023-08-12T09:07:38.696Z,99781.16
2023-08-12T09:08:44.021Z,99777.89
2023-08-12T09:09:49.338Z,99773.28
2023-08-12T09:10:54.634Z,99768.56
2023-08-12T09:11:59.949Z,99775.91
2023-08-12T09:13:05.322Z,99777.73
2023-08-12T09:14:10.681Z,99779.7
2023-08-12T09:15:16.023Z,99774.93
2023-08-12T09:16:21.469Z,99778.88
2023-08-12T09:17:26.867Z,99768.52
2023-08-12T09:18:32.352Z,99779.3
2023-08-12T09:19:37.669Z,99773.64
2023-08-12T09:20:43.025Z,99779.52
2023-08-12T09:21:48.328Z,99774.45
2023-08-12T09:22:53.635Z,99773.27
2023-08-12T09:23:59.256Z,99766.64
2023-08-12T09:25:04.569Z,99767.52
2023-08-12T09:26:09.859Z,99769.38
2023-08-12T09:27:15.215Z,99758.19
2023-08-12T09:28:20.523Z,99763.41
2023-08-12T09:29:25.843Z,99766.13
2023-08-12T09:30:31.179Z,99766.28
2023-08-12T09:31:36.716Z,99764.31
2023-08-12T09:32:42.163Z,99759.52
2023-08-12T09:33:47.491Z,99764
2023-08-12T09:34:52.818Z,99764.87
2023-08-12T09:35:58.239Z,99758.39
2023-08-12T09:37:04.043Z,99744.53
2023-08-12T09:38:09.362Z,99756.54
2023-08-12T09:39:14.687Z,99752.98
2023-08-12T09:40:20.030Z,99753.5
2023-08-12T09:41:25.327Z,99765.63
2023-08-12T09:42:30.737Z,99762.31
2023-08-12T09:43:36.582Z,99757.47
2023-08-12T09:44:41.910Z,99756.23
2023-08-12T09:45:47.288Z,99753.03
2023-08-12T09:46:52.641Z,99755.3
2023-08-12T09:47:58.019Z,99756.95
2023-08-12T09:49:03.410Z,99749.71
2023-08-12T09:50:08.761Z,99745.36
2023-08-12T09:51:14.149Z,99744.71
2023-08-12T09:52:19.528Z,99749.37
2023-08-12T09:53:24.852Z,99744.76
2023-08-12T09:54:30.186Z,99753.67
2023-08-12T09:55:35.496Z,99750.88
2023-08-12T09:56:40.886Z,99751.55
2023-08-12T09:57:46.195Z,99744.84
2023-08-12T09:58:51.494Z,99743.99
2023-08-12T09:59:56.902Z,99730.75
2023-08-12T10:01:02.212Z,99741.19
2023-08-12T10:02:07.645Z,99742.59
2023-08-12T10:03:13.077Z,99741.77
2023-08-12T10:04:18.477Z,99736.99
2023-08-12T10:05:23.894Z,99735.44
2023-08-12T10:06:29.225Z,99736.33
2023-08-12T10:07:34.632Z,99745.95
2023-08-12T10:08:39.925Z,99734.02
2023-08-12T10:09:45.348Z,99731.48
2023-08-12T10:11:12.748Z,99734.98
2023-08-12T10:12:21.283Z,99739.61
2023-08-12T10:13:26.798Z,99727.05
2023-08-12T10:14:32.092Z,99742.11
2023-08-12T10:15:37.502Z,99736.56
2023-08-12T10:16:42.944Z,99737.05
2023-08-12T10:17:48.396Z,99728.73
2023-08-12T10:18:53.829Z,99733.31
2023-08-12T10:19:59.299Z,99733.54
2023-08-12T10:21:04.628Z,99723.92
2023-08-12T10:22:10.119Z,99728.84
2023-08-12T10:23:16.030Z,99736.09
2023-08-12T10:24:21.353Z,99719.61
2023-08-12T10:25:26.684Z,99733.06
2023-08-12T10:26:31.979Z,99731.84
2023-08-12T10:27:37.389Z,99735.14
2023-08-12T10:28:42.715Z,99726.13
2023-08-12T10:29:48.066Z,99734.63
2023-08-12T10:30:53.378Z,99720.77
2023-08-12T10:31:58.751Z,99734.85
2023-08-12T10:33:04.186Z,99730.42
2023-08-12T10:34:09.486Z,99732.7
2023-08-12T10:35:14.813Z,99730.95
2023-08-12T10:36:20.148Z,99716.26
2023-08-12T10:37:25.426Z,99722.89
2023-08-12T10:38:30.766Z,99720.62
2023-08-12T10:39:36.259Z,99722.11
2023-08-12T10:40:41.581Z,99715.41
2023-08-12T10:41:46.888Z,99711.11
2023-08-12T10:42:52.204Z,99716.34
2023-08-12T10:43:57.560Z,99714.7
2023-08-12T10:45:02.864Z,99716.34
2023-08-12T10:46:08.254Z,99708.11
2023-08-12T10:47:13.869Z,99704.89
2023-08-12T10:48:19.522Z,99708.3
2023-08-12T10:49:24.950Z,99708.88
2023-08-12T10:50:30.235Z,99705.8
2023-08-12T10:51:35.669Z,99704.19
2023-08-12T10:52:41.004Z,99703.78
2023-08-12T10:53:46.598Z,99703.63
2023-08-12T10:54:51.881Z,99699.27
2023-08-12T10:55:57.205Z,99693.75
2023-08-12T10:57:02.554Z,99699.67
2023-08-12T10:58:07.974Z,99694.65
2023-08-12T10:59:13.300Z,99696.63
2023-08-12T11:00:18.622Z,99690.92
2023-08-12T11:01:23.983Z,99688.39
2023-08-12T11:02:29.529Z,99695.54
2023-08-12T11:03:38.870Z,99694.94
2023-08-12T11:04:44.596Z,99682.42
2023-08-12T11:05:50.006Z,99684.06
2023-08-12T11:06:55.299Z,99695.66
2023-08-12T11:08:00.828Z,99694.05
2023-08-12T11:09:06.549Z,99688.86
2023-08-12T11:10:11.935Z,99694.45
2023-08-12T11:11:17.422Z,99686.26
2023-08-12T11:12:22.765Z,99694.87
2023-08-12T11:13:28.081Z,99683.31
2023-08-12T11:14:33.373Z,99678.43
2023-08-12T11:15:38.650Z,99680.14
2023-08-12T11:16:44.114Z,99681.29
2023-08-12T11:17:49.669Z,99683.75
2023-08-12T11:18:55.079Z,99672.65
2023-08-12T11:20:00.411Z,99679.72
2023-08-12T11:21:05.784Z,99679.09
2023-08-12T11:22:11.392Z,99666.27
2023-08-12T11:23:17.199Z,99676.33
2023-08-12T11:24:22.544Z,99671.04
2023-08-12T11:25:27.882Z,99677.56
2023-08-12T11:26:33.188Z,99670.63
2023-08-12T11:27:38.559Z,99669.21
2023-08-12T11:28:43.868Z,99677.53
2023-08-12T11:29:49.204Z,99667.91
2023-08-12T11:30:54.569Z,99670.96
2023-08-12T11:31:59.899Z,99662.98
2023-08-12T11:33:05.616Z,99669.32
2023-08-12T11:34:11.039Z,99670.77
2023-08-12T11:35:16.355Z,99667.68
2023-08-12T11:36:21.711Z,99669.24
2023-08-12T11:37:27.181Z,99667.48
2023-08-12T11:38:32.475Z,99659.81
2023-08-12T11:39:37.796Z,99666.75
2023-08-12T11:40:43.107Z,99663.32
2023-08-12T11:41:48.410Z,99652.31
2023-08-12T11:42:53.727Z,99665.92
2023-08-12T11:43:59.088Z,99660.03
2023-08-12T11:45:04.423Z,99660.74
2023-08-12T11:46:09.848Z,99668.45
2023-08-12T11:47:15.286Z,99651.98
2023-08-12T11:48:20.654Z,99665.98
2023-08-12T11:49:26.041Z,99654.39
2023-08-12T11:50:31.367Z,99652.01
2023-08-12T11:51:36.691Z,99642.72
2023-08-12T11:52:42.022Z,99655.14
2023-08-12T11:53:47.352Z,99652.48
2023-08-12T11:54:52.675Z,99657.03
2023-08-12T11:55:58.019Z,99653.11
2023-08-12T11:57:03.308Z,99653.3
2023-08-12T11:58:08.618Z,99643.41
2023-08-12T11:59:14.083Z,99650.53
2023-08-12T12:00:19.420Z,99640.53
2023-08-12T12:01:25.108Z,99649.6
2023-08-12T12:02:30.603Z,99647.05
2023-08-12T12:03:36.121Z,99644.97
2023-08-12T12:04:41.499Z,99639.52
2023-08-12T12:05:46.834Z,99639.41
2023-08-12T12:06:52.190Z,99634.15
2023-08-12T12:07:57.566Z,99638.28
2023-08-12T12:09:02.885Z,99635.48
2023-08-12T12:10:08.206Z,99637.35
2023-08-12T12:11:13.535Z,99633.54
2023-08-12T12:12:19.197Z,99636.78
2023-08-12T12:13:25.280Z,99631.38
2023-08-12T12:14:30.568Z,99634.45
2023-08-12T12:15:35.867Z,99629.81
2023-08-12T12:16:41.201Z,99620.52
2023-08-12T12:17:46.735Z,99621.98
2023-08-12T12:18:52.975Z,99627.16
2023-08-12T12:19:58.299Z,99613.5
2023-08-12T12:21:03.596Z,99626.19
2023-08-12T12:22:08.897Z,99614.19
2023-08-12T12:23:14.775Z,99625.37
2023-08-12T12:24:20.320Z,99629.31
2023-08-12T12:25:25.676Z,99616.05
2023-08-12T12:26:31.017Z,99622.27
2023-08-12T12:27:36.345Z,99623.09
2023-08-12T12:28:41.674Z,99626.13
2023-08-12T12:29:47.050Z,99619.63
2023-08-12T12:30:52.410Z,99623.45
2023-08-12T12:31:57.857Z,99625.28
2023-08-12T12:33:03.217Z,99609.98
2023-08-12T12:34:08.614Z,99619.41
2023-08-12T12:35:14.018Z,99620.69
2023-08-12T12:36:19.344Z,99618
2023-08-12T12:37:24.728Z,99620.39
2023-08-12T12:38:30.085Z,99606.54
2023-08-12T12:39:35.493Z,99606.76
2023-08-12T12:40:40.886Z,99611.84
2023-08-12T12:41:49.592Z,99604.28
2023-08-12T12:42:54.878Z,99616.27
2023-08-12T12:44:00.239Z,99614.83
2023-08-12T12:45:05.590Z,99604.99
2023-08-12T12:46:11.056Z,99612.04
2023-08-12T12:47:16.429Z,99613.47
2023-08-12T12:48:21.764Z,99611.08
2023-08-12T12:49:27.081Z,99606.97
2023-08-12T12:50:32.413Z,99607.31
2023-08-12T12:51:37.738Z,99610
2023-08-12T12:52:46.045Z,99601.08